Time;durP1;ratioP1;P1;durP2;ratioP2;P2;SDS_P1;SDS_P2;PMS_P1;PMS_P2;Temp;Humidity;BMP_temperature;BMP_pressure;BME280_temperature;BME280_humidity;BME280_pressure;Samples;Min_cycle;Max_cycle;Signal;HPM_P1;HPM_P2
2023/05/29 00:01:37;;;;;;;12.90;3.13;;;;;;;11.06;100.00;102218.06;5071169;28;20040;-64
2023/05/29 00:04:05;;;;;;;13.63;3.20;;;;;;;11.07;100.00;102213.63;5070748;28;20052;-64
2023/05/29 00:06:37;;;;;;;14.88;3.03;;;;;;;11.05;100.00;102220.75;5070567;28;20048;-65
2023/05/29 00:09:05;;;;;;;14.63;3.08;;;;;;;11.02;100.00;102226.19;5070741;28;20080;-65
2023/05/29 00:11:33;;;;;;;16.52;3.10;;;;;;;10.99;100.00;102225.38;5072334;28;20052;-65
2023/05/29 00:14:01;;;;;;;18.20;3.38;;;;;;;10.82;100.00;102230.53;5071943;28;20555;-65
2023/05/29 00:16:31;;;;;;;12.82;2.70;;;;;;;10.76;100.00;102225.56;5070385;28;20103;-64
2023/05/29 00:18:59;;;;;;;14.98;2.83;;;;;;;10.61;100.00;102225.28;5070291;28;20575;-65
2023/05/29 00:21:27;;;;;;;15.45;3.10;;;;;;;10.66;100.00;102235.59;5070943;28;20040;-64
2023/05/29 00:23:55;;;;;;;19.42;3.50;;;;;;;10.75;100.00;102229.09;5071986;28;20045;-51
2023/05/29 00:26:23;;;;;;;15.20;2.92;;;;;;;10.64;100.00;102235.66;5069316;28;20118;-53
2023/05/29 00:28:51;;;;;;;10.93;2.58;;;;;;;10.60;100.00;102236.72;5072765;28;20048;-51
2023/05/29 00:31:24;;;;;;;13.10;2.88;;;;;;;10.48;100.00;102230.22;5073394;28;20049;-51
2023/05/29 00:33:53;;;;;;;11.60;2.75;;;;;;;10.49;100.00;102228.44;5055347;28;20135;-52
2023/05/29 00:36:23;;;;;;;17.95;2.75;;;;;;;10.49;100.00;102233.72;5073391;28;20106;-51
2023/05/29 00:38:51;;;;;;;16.98;3.45;;;;;;;10.46;100.00;102229.44;5073450;28;20095;-54
2023/05/29 00:41:20;;;;;;;16.95;3.03;;;;;;;10.42;100.00;102235.75;5073114;28;20048;-54
2023/05/29 00:43:48;;;;;;;22.02;3.17;;;;;;;10.37;100.00;102229.81;5073260;28;20389;-53
2023/05/29 00:46:20;;;;;;;12.27;3.15;;;;;;;10.41;100.00;102238.44;5071993;28;20041;-52
2023/05/29 00:48:50;;;;;;;15.32;2.90;;;;;;;10.39;100.00;102241.13;5051740;28;20167;-50
2023/05/29 00:51:20;;;;;;;12.98;2.60;;;;;;;10.37;100.00;102239.50;5069492;28;20106;-50
2023/05/29 00:53:49;;;;;;;16.33;2.65;;;;;;;10.33;100.00;102233.47;5069816;28;20044;-52
2023/05/29 00:56:18;;;;;;;19.35;2.78;;;;;;;10.33;100.00;102228.19;5069462;28;20040;-53
2023/05/29 00:58:46;;;;;;;18.92;3.08;;;;;;;10.37;100.00;102234.22;5072799;28;20056;-52
2023/05/29 01:01:18;;;;;;;14.65;3.55;;;;;;;10.32;100.00;102239.63;5070987;28;20082;-53
2023/05/29 01:03:48;;;;;;;17.30;2.75;;;;;;;10.21;100.00;102245.38;5069967;28;20060;-51
2023/05/29 01:06:17;;;;;;;13.57;2.50;;;;;;;10.13;100.00;102250.09;5069604;28;20056;-54
2023/05/29 01:08:46;;;;;;;14.52;2.63;;;;;;;10.01;100.00;102250.56;5050483;28;20470;-51
2023/05/29 01:11:26;;;;;;;13.35;2.60;;;;;;;10.02;100.00;102244.38;5052116;28;20118;-53
2023/05/29 01:14:01;;;;;;;12.68;2.55;;;;;;;10.15;100.00;102258.75;5050702;28;20055;-53
2023/05/29 01:16:36;;;;;;;17.90;4.28;;;;;;;10.12;100.00;102256.25;5048781;28;20124;-54
2023/05/29 01:19:21;;;;;;;15.73;3.45;;;;;;;10.02;100.00;102260.16;5052473;28;20048;-51
2023/05/29 01:21:59;;;;;;;18.02;3.20;;;;;;;9.94;100.00;102261.34;5049931;28;20076;-52
2023/05/29 01:24:38;;;;;;;18.50;2.63;;;;;;;9.91;100.00;102263.22;5050331;28;20055;-64
2023/05/29 01:27:11;;;;;;;11.93;2.25;;;;;;;9.97;100.00;102273.50;5051062;28;20511;-65
2023/05/29 01:29:44;;;;;;;18.13;2.50;;;;;;;9.87;100.00;102275.63;5049564;28;20044;-64
2023/05/29 01:32:12;;;;;;;16.08;3.33;;;;;;;9.88;100.00;102274.69;5050480;28;20086;-64
2023/05/29 01:34:40;;;;;;;16.08;2.67;;;;;;;9.92;100.00;102278.91;5050538;28;20521;-65
2023/05/29 01:37:08;;;;;;;14.38;2.75;;;;;;;9.87;100.00;102272.13;5049518;28;20052;-62
2023/05/29 01:39:37;;;;;;;15.40;2.70;;;;;;;9.83;100.00;102274.06;5051981;28;20399;-63
2023/05/29 01:42:06;;;;;;;16.13;2.80;;;;;;;9.84;100.00;102273.09;5052073;28;20053;-65
2023/05/29 01:44:37;;;;;;;17.92;2.78;;;;;;;9.84;100.00;102278.38;5049538;28;20052;-63
2023/05/29 01:47:06;;;;;;;15.73;3.13;;;;;;;9.74;100.00;102284.91;5050572;28;20049;-64
2023/05/29 01:49:37;;;;;;;11.25;2.30;;;;;;;9.63;100.00;102280.06;5052396;28;20484;-64
2023/05/29 01:52:06;;;;;;;14.52;3.40;;;;;;;9.64;100.00;102280.00;5048670;28;20055;-65
2023/05/29 01:54:34;;;;;;;15.10;2.78;;;;;;;9.64;100.00;102281.78;5048443;28;20049;-64
2023/05/29 01:57:05;;;;;;;14.18;2.65;;;;;;;9.60;100.00;102281.03;5048642;28;20053;-62
2023/05/29 01:59:36;;;;;;;15.65;2.83;;;;;;;9.45;100.00;102277.22;5049436;28;20156;-64
2023/05/29 02:02:07;;;;;;;14.32;2.60;;;;;;;9.48;100.00;102277.09;5049534;28;20044;-51
2023/05/29 02:04:35;;;;;;;17.75;2.78;;;;;;;9.46;100.00;102278.94;5049080;28;20057;-65
2023/05/29 02:07:03;;;;;;;15.35;3.13;;;;;;;9.45;100.00;102277.22;5052058;28;20055;-64
2023/05/29 02:09:31;;;;;;;15.13;2.78;;;;;;;9.41;100.00;102274.78;5071961;28;20052;-64
2023/05/29 02:12:00;;;;;;;13.98;2.95;;;;;;;9.29;100.00;102276.94;5053938;28;20049;-64
2023/05/29 02:14:28;;;;;;;18.65;2.85;;;;;;;9.32;100.00;102270.72;5070166;28;20527;-54
2023/05/29 02:16:58;;;;;;;17.02;2.60;;;;;;;9.36;100.00;102277.56;5069590;28;20082;-50
2023/05/29 02:19:26;;;;;;;15.57;3.10;;;;;;;9.34;100.00;102281.16;5071213;28;20123;-53
2023/05/29 02:21:54;;;;;;;14.07;2.83;;;;;;;9.35;100.00;102285.50;5071441;28;20319;-51
2023/05/29 02:24:23;;;;;;;21.40;3.35;;;;;;;9.33;100.00;102282.09;5068243;28;20507;-51
2023/05/29 02:26:51;;;;;;;19.67;3.38;;;;;;;9.30;100.00;102277.81;5067926;28;20056;-54
2023/05/29 02:29:20;;;;;;;13.75;3.15;;;;;;;9.17;100.00;102281.78;5071443;28;20040;-53
2023/05/29 02:31:48;;;;;;;14.43;2.60;;;;;;;9.24;100.00;102273.63;5072863;28;20049;-55
2023/05/29 02:34:18;;;;;;;16.70;3.10;;;;;;;9.26;100.00;102274.44;5072294;28;20520;-53
2023/05/29 02:36:46;;;;;;;16.23;3.08;;;;;;;9.27;100.00;102272.63;5056179;28;20052;-52
2023/05/29 02:39:14;;;;;;;15.25;2.78;;;;;;;9.33;100.00;102261.94;5075727;28;20500;-54
2023/05/29 02:41:42;;;;;;;19.30;2.97;;;;;;;9.28;100.00;102264.75;5057773;28;20062;-49
2023/05/29 02:44:10;;;;;;;20.00;2.60;;;;;;;9.27;100.00;102265.66;5075069;28;20076;-50
2023/05/29 02:46:41;;;;;;;21.98;3.40;;;;;;;9.21;100.00;102263.22;5075367;28;20049;-53
2023/05/29 02:49:09;;;;;;;16.48;3.00;;;;;;;9.08;100.00;102261.97;5074576;28;20050;-53
2023/05/29 02:51:39;;;;;;;18.27;3.17;;;;;;;9.07;100.00;102265.53;5072117;28;20051;-53
2023/05/29 02:54:08;;;;;;;20.55;2.92;;;;;;;9.05;100.00;102270.81;5072591;28;20606;-53
2023/05/29 02:56:36;;;;;;;12.63;3.00;;;;;;;9.05;100.00;102273.44;5074587;28;20052;-51
2023/05/29 02:59:06;;;;;;;22.05;3.63;;;;;;;9.04;100.00;102268.22;5074373;28;20049;-53
2023/05/29 03:01:35;;;;;;;17.90;3.03;;;;;;;9.05;100.00;102270.81;5071643;28;20053;-51
2023/05/29 03:04:03;;;;;;;21.85;3.38;;;;;;;9.00;100.00;102266.63;5072067;28;20068;-52
2023/05/29 03:06:32;;;;;;;18.77;2.53;;;;;;;9.04;100.00;102271.72;5055221;28;20044;-50
2023/05/29 03:09:02;;;;;;;20.48;3.00;;;;;;;9.02;100.00;102285.81;5074894;28;20060;-54
2023/05/29 03:11:30;;;;;;;17.95;2.88;;;;;;;8.93;100.00;102282.59;5074761;28;20045;-50
2023/05/29 03:13:58;;;;;;;17.95;3.25;;;;;;;8.92;100.00;102286.13;5071700;28;20055;-51
2023/05/29 03:16:29;;;;;;;14.93;3.22;;;;;;;8.86;100.00;102294.25;5071712;28;20045;-53
2023/05/29 03:18:57;;;;;;;17.40;2.85;;;;;;;8.88;100.00;102292.41;5053707;28;20053;-53
2023/05/29 03:21:25;;;;;;;16.02;3.10;;;;;;;8.88;100.00;102292.41;5071375;28;20041;-53
2023/05/29 03:23:53;;;;;;;15.82;2.90;;;;;;;8.90;100.00;102287.09;5071729;28;20045;-52
2023/05/29 03:26:23;;;;;;;16.42;2.78;;;;;;;8.94;100.00;102286.94;5070912;28;20052;-52
2023/05/29 03:28:51;;;;;;;15.43;2.95;;;;;;;8.87;100.00;102282.81;5072344;28;20044;-64
2023/05/29 03:31:19;;;;;;;14.57;2.70;;;;;;;8.93;100.00;102287.84;5073436;28;20048;-64
2023/05/29 03:33:48;;;;;;;18.15;3.50;;;;;;;8.83;100.00;102293.47;5071130;28;20052;-64
2023/05/29 03:36:17;;;;;;;14.68;3.00;;;;;;;8.71;100.00;102279.88;5071360;28;20395;-63
2023/05/29 03:38:45;;;;;;;16.27;2.30;;;;;;;8.76;100.00;102287.59;5071674;28;20055;-64
2023/05/29 03:41:13;;;;;;;15.52;2.92;;;;;;;8.74;100.00;102279.78;5072368;28;20138;-65
2023/05/29 03:43:43;;;;;;;16.73;2.78;;;;;;;8.73;100.00;102279.81;5071449;28;20052;-63
2023/05/29 03:46:11;;;;;;;13.55;2.47;;;;;;;8.75;100.00;102275.38;5053080;28;20110;-63
2023/05/29 03:48:39;;;;;;;18.73;2.78;;;;;;;8.73;100.00;102285.91;5071157;28;20045;-64
2023/05/29 03:51:08;;;;;;;17.70;3.10;;;;;;;8.80;100.00;102289.19;5070725;28;20090;-63
2023/05/29 03:53:36;;;;;;;15.55;2.70;;;;;;;8.76;100.00;102290.19;5071386;28;20059;-63
2023/05/29 03:56:05;;;;;;;13.48;2.22;;;;;;;8.72;100.00;102291.22;5070756;28;20522;-64
2023/05/29 03:58:33;;;;;;;16.33;2.83;;;;;;;8.84;100.00;102301.28;5070917;28;20496;-64
2023/05/29 04:01:03;;;;;;;12.52;2.40;;;;;;;8.77;100.00;102300.63;5053017;28;20048;-64
2023/05/29 04:03:34;;;;;;;18.02;2.83;;;;;;;8.72;100.00;102301.72;5070547;28;20041;-64
2023/05/29 04:06:03;;;;;;;12.80;2.22;;;;;;;8.72;100.00;102309.59;5070469;28;20045;-63
2023/05/29 04:08:31;;;;;;;18.33;2.75;;;;;;;8.70;100.00;102307.00;5070132;28;20683;-63
2023/05/29 04:10:59;;;;;;;15.43;2.75;;;;;;;8.72;100.00;102312.19;5072458;28;20044;-63
2023/05/29 04:13:27;;;;;;;11.75;2.45;;;;;;;8.76;100.00;102300.69;5071760;28;21031;-64
2023/05/29 04:15:55;;;;;;;15.25;3.15;;;;;;;8.75;100.00;102306.84;5071138;28;20036;-63
2023/05/29 04:18:26;;;;;;;12.35;2.20;;;;;;;8.73;100.00;102319.16;5072819;28;20113;-64
2023/05/29 04:20:54;;;;;;;19.25;2.95;;;;;;;8.78;100.00;102307.59;5070352;28;20063;-64
2023/05/29 04:23:22;;;;;;;16.30;3.03;;;;;;;8.79;100.00;102314.56;5070246;28;20041;-64
2023/05/29 04:25:51;;;;;;;21.65;3.67;;;;;;;8.77;100.00;102324.25;5054285;28;20048;-64
2023/05/29 04:28:21;;;;;;;17.50;3.22;;;;;;;8.87;100.00;102311.66;5073547;28;20087;-64
2023/05/29 04:30:49;;;;;;;16.85;2.92;;;;;;;8.91;100.00;102307.19;5073550;28;20056;-62
2023/05/29 04:33:20;;;;;;;21.90;3.42;;;;;;;8.93;100.00;102300.97;5073179;28;20090;-64
2023/05/29 04:35:50;;;;;;;14.85;2.80;;;;;;;8.91;100.00;102302.78;5072090;28;20567;-64
2023/05/29 04:38:19;;;;;;;17.90;3.10;;;;;;;8.90;100.00;102294.97;5069264;28;20044;-64
2023/05/29 04:40:47;;;;;;;13.23;2.70;;;;;;;8.91;100.00;102296.69;5069784;28;20403;-64
2023/05/29 04:43:16;;;;;;;18.33;2.97;;;;;;;8.89;100.00;102304.63;5069093;28;20044;-66
2023/05/29 04:45:44;;;;;;;16.45;3.22;;;;;;;8.97;100.00;102309.56;5073422;28;20048;-63
2023/05/29 04:48:12;;;;;;;11.90;2.72;;;;;;;9.04;100.00;102323.34;5072109;28;20048;-63
2023/05/29 04:50:41;;;;;;;13.10;2.50;;;;;;;8.98;100.00;102328.81;5068524;28;20049;-63
2023/05/29 04:53:10;;;;;;;15.82;2.75;;;;;;;9.05;100.00;102322.44;5051492;28;20041;-64
2023/05/29 04:55:39;;;;;;;16.63;3.17;;;;;;;9.08;100.00;102327.56;5056842;28;20055;-64
2023/05/29 04:58:07;;;;;;;14.32;2.85;;;;;;;9.10;100.00;102334.47;5073121;28;20115;-63
2023/05/29 05:00:36;;;;;;;14.48;2.85;;;;;;;9.10;100.00;102344.13;5060804;28;20154;-63
2023/05/29 05:03:04;;;;;;;21.08;3.47;;;;;;;9.09;100.00;102345.91;5090332;28;20044;-65
2023/05/29 05:05:33;;;;;;;14.55;2.75;;;;;;;9.16;100.00;102341.28;5069228;28;20051;-64
2023/05/29 05:08:01;;;;;;;14.23;2.50;;;;;;;9.20;100.00;102344.66;5069390;28;20064;-62
2023/05/29 05:10:33;;;;;;;14.07;2.40;;;;;;;9.16;100.00;102345.69;5069345;28;20040;-64
2023/05/29 05:13:02;;;;;;;21.23;2.78;;;;;;;9.26;100.00;102347.09;5068505;28;20045;-63
2023/05/29 05:15:30;;;;;;;20.42;3.40;;;;;;;9.31;100.00;102337.25;5068937;28;20049;-63
2023/05/29 05:17:58;;;;;;;17.38;2.75;;;;;;;9.34;100.00;102352.91;5069928;28;20102;-64
2023/05/29 05:20:27;;;;;;;19.15;3.42;;;;;;;9.41;100.00;102350.94;5068751;28;20316;-64
2023/05/29 05:22:55;;;;;;;15.82;2.72;;;;;;;9.51;100.00;102354.06;5072096;28;20102;-64
2023/05/29 05:25:24;;;;;;;15.10;2.70;;;;;;;9.51;100.00;102341.78;5069013;28;20056;-64
2023/05/29 05:27:53;;;;;;;15.95;2.60;;;;;;;9.62;100.00;102347.50;5069387;28;20059;-63
2023/05/29 05:30:21;;;;;;;12.10;2.72;;;;;;;9.72;100.00;102347.16;5070476;28;20043;-65
2023/05/29 05:32:49;;;;;;;16.05;2.50;;;;;;;9.77;100.00;102345.22;5069284;28;20569;-64
2023/05/29 05:35:18;;;;;;;19.42;3.25;;;;;;;9.85;100.00;102348.41;5068168;28;20052;-64
2023/05/29 05:37:46;;;;;;;12.43;2.53;;;;;;;9.91;100.00;102337.69;5072345;28;20476;-63
2023/05/29 05:40:14;;;;;;;14.68;2.53;;;;;;;10.05;100.00;102344.13;5072242;28;20049;-63
2023/05/29 05:42:42;;;;;;;16.70;2.50;;;;;;;10.09;100.00;102354.50;5070373;28;20047;-63
2023/05/29 05:45:12;;;;;;;13.02;2.47;;;;;;;10.17;100.00;102358.59;5068867;28;20468;-64
2023/05/29 05:47:40;;;;;;;13.88;3.00;;;;;;;10.18;100.00;102361.16;5071748;28;20057;-64
2023/05/29 05:50:09;;;;;;;14.20;2.80;;;;;;;10.26;100.00;102363.50;5068683;28;20052;-64
2023/05/29 05:52:38;;;;;;;12.77;2.50;;;;;;;10.29;100.00;102351.09;5069625;28;20648;-64
2023/05/29 05:55:07;;;;;;;14.70;2.33;;;;;;;10.40;100.00;102355.94;5068982;28;20036;-63
2023/05/29 05:57:36;;;;;;;10.85;2.17;;;;;;;10.44;100.00;102359.28;5052115;28;20059;-63
2023/05/29 06:00:07;;;;;;;12.27;2.83;;;;;;;10.48;100.00;102361.75;5072016;28;20131;-64
2023/05/29 06:02:37;;;;;;;13.65;2.78;;;;;;;10.52;100.00;102359.84;5071999;28;20052;-64
2023/05/29 06:05:07;;;;;;;13.32;2.80;;;;;;;10.58;100.00;102364.84;5075594;28;20115;-65
2023/05/29 06:07:35;;;;;;;12.68;2.25;;;;;;;10.76;100.00;102367.66;5072877;28;20052;-64
2023/05/29 06:10:04;;;;;;;15.82;2.45;;;;;;;10.75;100.00;102373.81;5073007;28;20075;-64
2023/05/29 06:12:32;;;;;;;13.23;2.25;;;;;;;10.80;100.00;102363.97;5071466;28;20043;-64
2023/05/29 06:15:00;;;;;;;13.05;2.10;;;;;;;10.98;100.00;102363.19;5075217;28;20055;-54
2023/05/29 06:17:28;;;;;;;11.95;2.45;;;;;;;11.11;100.00;102360.88;5072255;28;20797;-54
2023/05/29 06:19:58;;;;;;;13.82;2.53;;;;;;;11.25;100.00;102364.69;5072902;28;20082;-53
2023/05/29 06:22:26;;;;;;;14.63;2.70;;;;;;;11.37;100.00;102377.34;5073968;28;20040;-55
2023/05/29 06:24:54;;;;;;;11.85;2.65;;;;;;;11.37;100.00;102373.81;5075432;28;20051;-51
2023/05/29 06:27:25;;;;;;;10.77;2.30;;;;;;;11.42;100.00;102367.41;5071475;28;20049;-52
2023/05/29 06:29:53;;;;;;;15.25;2.67;;;;;;;11.59;100.00;102369.31;5072657;28;20057;-52
2023/05/29 06:32:22;;;;;;;16.77;2.70;;;;;;;11.64;100.00;102369.09;5072287;28;22006;-52
2023/05/29 06:34:50;;;;;;;12.27;2.30;;;;;;;11.73;100.00;102370.47;5054494;28;20513;-54
2023/05/29 06:37:19;;;;;;;13.82;2.53;;;;;;;11.88;100.00;102382.09;5072513;28;20056;-53
2023/05/29 06:39:48;;;;;;;15.50;2.17;;;;;;;12.03;100.00;102385.84;5075075;28;20522;-53
2023/05/29 06:42:16;;;;;;;14.07;2.22;;;;;;;12.12;100.00;102388.00;5071019;28;20080;-53
2023/05/29 06:44:47;;;;;;;13.15;2.42;;;;;;;12.14;100.00;102383.53;5072675;28;20377;-53
2023/05/29 06:47:15;;;;;;;15.48;2.38;;;;;;;12.27;100.00;102383.78;5072337;28;20048;-54
2023/05/29 06:49:43;;;;;;;13.25;2.60;;;;;;;12.43;100.00;102390.03;5072571;28;20127;-55
2023/05/29 06:52:11;;;;;;;15.45;2.78;;;;;;;12.49;100.00;102384.47;5072245;28;20105;-52
2023/05/29 06:54:41;;;;;;;12.63;2.50;;;;;;;12.70;100.00;102386.97;5072674;28;20052;-53
2023/05/29 06:57:10;;;;;;;11.27;2.05;;;;;;;12.68;100.00;102387.06;5075467;28;20384;-53
2023/05/29 06:59:38;;;;;;;15.27;2.40;;;;;;;12.75;100.00;102382.34;5075145;28;20048;-51
2023/05/29 07:02:07;;;;;;;9.98;2.67;;;;;;;12.89;100.00;102386.91;5073819;28;20406;-52
2023/05/29 07:04:36;;;;;;;16.80;2.67;;;;;;;13.03;100.00;102383.56;5072044;28;20147;-54
2023/05/29 07:07:04;;;;;;;16.20;2.30;;;;;;;13.13;100.00;102395.38;5072111;28;20123;-52
2023/05/29 07:09:32;;;;;;;15.95;2.30;;;;;;;13.19;100.00;102394.22;5071863;28;20060;-52
2023/05/29 07:12:02;;;;;;;15.80;2.97;;;;;;;13.33;100.00;102389.06;5073313;28;20408;-53
2023/05/29 07:14:30;;;;;;;13.27;2.70;;;;;;;13.45;100.00;102392.03;5070590;28;20098;-54
2023/05/29 07:16:59;;;;;;;13.60;2.60;;;;;;;13.54;100.00;102391.56;5074170;28;20048;-53
2023/05/29 07:19:32;;;;;;;13.17;2.33;;;;;;;13.76;100.00;102393.88;5071758;28;20466;-53
2023/05/29 07:22:03;;;;;;;12.40;2.35;;;;;;;13.88;100.00;102396.78;5072294;28;20056;-53
2023/05/29 07:24:31;;;;;;;17.02;2.70;;;;;;;13.93;100.00;102402.69;5071330;28;20438;-52
2023/05/29 07:26:59;;;;;;;15.60;2.50;;;;;;;14.07;100.00;102401.94;5052861;28;20052;-54
2023/05/29 07:29:29;;;;;;;9.05;2.00;;;;;;;14.13;100.00;102397.16;5071607;28;20932;-49
2023/05/29 07:31:57;;;;;;;13.85;2.55;;;;;;;14.24;100.00;102401.84;5074628;28;20549;-54
2023/05/29 07:34:25;;;;;;;12.35;2.63;;;;;;;14.34;100.00;102408.34;5074508;28;20139;-52
2023/05/29 07:36:59;;;;;;;15.05;2.05;;;;;;;14.42;100.00;102407.03;5074593;28;20131;-54
2023/05/29 07:39:28;;;;;;;13.55;2.10;;;;;;;14.52;100.00;102402.94;5073238;28;20052;-54
2023/05/29 07:41:56;;;;;;;13.32;2.50;;;;;;;14.63;100.00;102411.16;5070816;28;20051;-55
2023/05/29 07:44:24;;;;;;;14.02;2.33;;;;;;;14.73;100.00;102405.31;5073732;28;20045;-55
2023/05/29 07:46:54;;;;;;;9.57;1.92;;;;;;;14.88;100.00;102401.78;5074275;28;20507;-53
2023/05/29 07:49:22;;;;;;;10.70;2.00;;;;;;;14.92;100.00;102399.81;5072749;28;20044;-53
2023/05/29 07:51:50;;;;;;;13.25;2.35;;;;;;;14.95;100.00;102394.31;5071299;28;20045;-54
2023/05/29 07:54:20;;;;;;;13.30;2.13;;;;;;;15.15;100.00;102401.94;5052637;28;20052;-53
2023/05/29 07:56:51;;;;;;;10.88;2.05;;;;;;;15.18;100.00;102406.19;5073828;28;20045;-56
2023/05/29 07:59:19;;;;;;;10.50;2.03;;;;;;;15.25;100.00;102404.03;5073913;28;20123;-54
2023/05/29 08:01:50;;;;;;;16.08;2.35;;;;;;;15.40;99.54;102412.84;5073281;28;20040;-54
2023/05/29 08:04:19;;;;;;;12.77;2.58;;;;;;;15.43;98.44;102410.84;5070546;28;20040;-54
2023/05/29 08:06:48;;;;;;;14.50;2.50;;;;;;;15.62;98.24;102410.56;5071095;28;20049;-55
2023/05/29 08:09:17;;;;;;;13.30;2.92;;;;;;;15.77;97.29;102410.56;5070457;28;20540;-56
2023/05/29 08:11:46;;;;;;;12.73;3.10;;;;;;;15.73;95.57;102412.56;5073356;28;20055;-55
2023/05/29 08:14:15;;;;;;;11.77;2.03;;;;;;;15.86;96.61;102405.56;5070872;28;20438;-54
2023/05/29 08:16:43;;;;;;;9.45;2.30;;;;;;;15.95;95.96;102405.94;5071129;28;20492;-54
2023/05/29 08:19:12;;;;;;;13.80;2.40;;;;;;;16.08;96.66;102406.03;5052401;28;20076;-55
2023/05/29 08:21:41;;;;;;;12.02;2.17;;;;;;;16.39;95.27;102416.34;5070461;28;20122;-54
2023/05/29 08:24:09;;;;;;;14.65;2.15;;;;;;;16.43;95.04;102419.69;5070350;28;20048;-55
2023/05/29 08:26:41;;;;;;;12.15;2.28;;;;;;;16.63;89.83;102421.00;5069525;28;20110;-54
2023/05/29 08:29:09;;;;;;;13.23;2.42;;;;;;;16.52;92.59;102420.88;5053165;28;20155;-55
2023/05/29 08:31:37;;;;;;;11.82;2.17;;;;;;;16.68;91.60;102413.59;5073481;28;20068;-56
2023/05/29 08:34:06;;;;;;;12.70;2.80;;;;;;;16.78;87.00;102413.81;5073474;28;20398;-55
2023/05/29 08:36:34;;;;;;;13.73;2.30;;;;;;;16.99;88.98;102405.41;5073494;28;20057;-56
2023/05/29 08:39:04;;;;;;;11.90;2.65;;;;;;;17.03;87.15;102412.22;5072765;28;20049;-55
2023/05/29 08:41:46;;;;;;;9.88;2.33;;;;;;;17.18;87.16;102410.34;5069489;28;20110;-55
2023/05/29 08:44:15;;;;;;;11.48;1.95;;;;;;;17.36;88.92;102405.53;5070518;28;20044;-56
2023/05/29 08:46:45;;;;;;;8.82;2.05;;;;;;;17.32;85.26;102412.03;5070591;28;20478;-55
2023/05/29 08:49:18;;;;;;;12.90;2.30;;;;;;;17.38;83.56;102411.59;5072727;28;20106;-55
2023/05/29 08:51:50;;;;;;;9.85;2.28;;;;;;;17.56;83.54;102407.66;5072956;28;20438;-56
2023/05/29 08:54:20;;;;;;;11.27;2.80;;;;;;;17.74;84.46;102412.66;5069821;28;20047;-66
2023/05/29 08:56:48;;;;;;;12.25;2.20;;;;;;;17.73;80.69;102410.94;5071831;28;20048;-64
2023/05/29 08:59:17;;;;;;;13.48;2.38;;;;;;;17.87;79.23;102407.28;5073108;28;20059;-63
2023/05/29 09:01:46;;;;;;;11.60;2.42;;;;;;;17.98;79.04;102404.72;5052350;28;20053;-55
2023/05/29 09:04:14;;;;;;;13.02;2.75;;;;;;;18.13;77.06;102405.41;5069773;28;20044;-55
2023/05/29 09:06:46;;;;;;;10.05;2.63;;;;;;;18.24;78.16;102413.50;5070457;28;20799;-55
2023/05/29 09:09:15;;;;;;;13.68;2.28;;;;;;;18.22;76.88;102411.91;5071242;28;20487;-55
2023/05/29 09:11:45;;;;;;;13.57;2.45;;;;;;;18.33;75.56;102422.63;5072698;28;20052;-55
2023/05/29 09:14:35;;;;;;;13.85;2.40;;;;;;;18.13;74.27;102413.41;5069689;28;20045;-67
2023/05/29 09:17:05;;;;;;;8.63;1.85;;;;;;;18.15;73.41;102416.00;5070584;28;20090;-69
2023/05/29 09:19:33;;;;;;;7.78;2.28;;;;;;;18.57;73.52;102416.44;5070553;28;20052;-65
2023/05/29 09:22:03;;;;;;;7.63;1.88;;;;;;;18.51;70.53;102414.22;5069748;28;20048;-65
2023/05/29 09:24:36;;;;;;;11.30;2.30;;;;;;;18.42;72.56;102416.63;5069007;28;20569;-59
2023/05/29 09:27:08;;;;;;;8.40;2.30;;;;;;;18.46;72.20;102403.94;5069312;28;20048;-66
2023/05/29 09:29:39;;;;;;;10.93;2.65;;;;;;;18.53;73.04;102404.34;5071256;28;20052;-56
2023/05/29 09:32:09;;;;;;;9.93;2.33;;;;;;;18.84;72.72;102407.31;5069397;28;20063;-54
2023/05/29 09:34:38;;;;;;;12.60;2.47;;;;;;;18.90;71.17;102409.56;5072105;28;20076;-55
2023/05/29 09:37:08;;;;;;;10.27;2.42;;;;;;;18.97;73.15;102412.63;5072047;28;20494;-66
2023/05/29 09:39:47;;;;;;;11.80;2.35;;;;;;;18.82;72.03;102406.63;5068666;28;20041;-66
2023/05/29 09:42:17;;;;;;;11.60;2.67;;;;;;;19.20;73.61;102409.03;5069532;28;20056;-66
2023/05/29 09:44:51;;;;;;;11.68;2.38;;;;;;;19.18;70.26;102405.66;5072495;28;20040;-67
2023/05/29 09:47:20;;;;;;;9.48;2.20;;;;;;;19.24;69.77;102405.16;5072369;28;20057;-56
2023/05/29 09:49:48;;;;;;;13.05;2.50;;;;;;;19.38;69.98;102406.75;5068746;28;20049;-57
2023/05/29 09:52:22;;;;;;;9.90;2.17;;;;;;;19.63;71.33;102401.28;5051915;28;20044;-67
2023/05/29 09:54:52;;;;;;;12.68;2.72;;;;;;;19.85;69.79;102404.00;5072276;28;20032;-64
2023/05/29 09:57:24;;;;;;;11.52;2.53;;;;;;;19.87;68.59;102407.38;5072930;28;20094;-65
2023/05/29 09:59:53;;;;;;;10.77;2.53;;;;;;;19.87;68.34;102398.53;5072429;28;20376;-66
2023/05/29 10:02:22;;;;;;;10.30;2.47;;;;;;;19.90;65.97;102398.28;5068952;28;20052;-65
2023/05/29 10:04:50;;;;;;;10.18;2.58;;;;;;;20.03;65.67;102390.97;5069533;28;20561;-56
2023/05/29 10:07:27;;;;;;;11.30;2.28;;;;;;;19.87;66.94;102393.19;5070390;28;20446;-56
2023/05/29 10:10:01;;;;;;;13.20;2.90;;;;;;;20.04;66.10;102397.16;5069024;28;20056;-56
2023/05/29 10:12:33;;;;;;;11.70;2.58;;;;;;;20.32;67.36;102408.25;5067577;28;20044;-55
2023/05/29 10:15:06;;;;;;;9.90;2.45;;;;;;;20.16;64.47;102396.16;5069527;28;20052;-55
2023/05/29 10:17:36;;;;;;;11.65;2.78;;;;;;;20.12;66.33;102392.03;5069065;28;20048;-56
2023/05/29 10:20:07;;;;;;;10.63;2.53;;;;;;;20.08;62.15;102388.78;5068802;28;20055;-55
2023/05/29 10:22:41;;;;;;;11.38;2.30;;;;;;;19.88;64.69;102397.56;5069606;28;20112;-57
2023/05/29 10:25:11;;;;;;;7.53;1.98;;;;;;;20.08;64.06;102388.78;5068706;28;20740;-56
2023/05/29 10:27:41;;;;;;;11.27;2.15;;;;;;;20.32;64.04;102398.41;5050407;28;20048;-56
2023/05/29 10:30:16;;;;;;;9.60;2.60;;;;;;;20.37;62.54;102400.69;5070053;28;20492;-57
2023/05/29 10:32:57;;;;;;;8.68;2.08;;;;;;;20.30;60.86;102392.38;5069258;28;20491;-57
2023/05/29 10:35:32;;;;;;;10.20;2.90;;;;;;;20.32;62.05;102394.91;5067174;28;20051;-58
2023/05/29 10:38:09;;;;;;;13.55;2.58;;;;;;;20.29;62.60;102395.13;5068817;28;20051;-57
2023/05/29 10:40:37;;;;;;;8.30;2.60;;;;;;;20.38;61.92;102397.06;5069236;28;20049;-57
2023/05/29 10:43:10;;;;;;;7.78;2.35;;;;;;;20.25;61.09;102383.88;5068878;28;20914;-55
2023/05/29 10:45:54;;;;;;;10.27;2.40;;;;;;;20.76;61.31;102388.56;5069170;28;20032;-55
2023/05/29 10:48:42;;;;;;;7.70;2.42;;;;;;;20.54;58.85;102389.47;5068252;28;20048;-56
2023/05/29 10:51:26;;;;;;;11.93;2.33;;;;;;;20.62;59.18;102393.34;5070922;28;20062;-55
2023/05/29 10:53:54;;;;;;;8.02;2.10;;;;;;;20.57;59.74;102386.56;5054839;28;20048;-55
2023/05/29 10:56:30;;;;;;;10.00;2.85;;;;;;;20.70;57.50;102389.06;5071446;28;20040;-63
2023/05/29 10:59:04;;;;;;;8.63;2.30;;;;;;;20.76;57.89;102382.34;5054777;28;20052;-57
2023/05/29 11:01:32;;;;;;;10.50;2.40;;;;;;;20.70;57.82;102380.22;5074786;28;20052;-55
2023/05/29 11:04:31;;;;;;;11.00;2.42;;;;;;;20.45;58.28;102379.56;5075328;28;20053;-55
2023/05/29 11:07:00;;;;;;;11.52;2.65;;;;;;;20.68;59.48;102380.34;5074958;28;20079;-56
2023/05/29 11:09:30;;;;;;;9.50;2.30;;;;;;;20.85;56.31;102370.03;5054002;28;20084;-54
2023/05/29 11:12:33;;;;;;;9.45;2.42;;;;;;;21.27;57.76;102378.84;5055308;28;20052;-57
2023/05/29 11:15:07;;;;;;;10.07;2.72;;;;;;;21.26;58.19;102382.50;5075218;28;20090;-57
2023/05/29 11:17:46;;;;;;;9.25;2.10;;;;;;;21.33;52.78;102377.47;5074943;28;20040;-55
2023/05/29 11:20:28;;;;;;;10.68;2.40;;;;;;;21.21;52.17;102375.84;5057170;28;20071;-54
2023/05/29 11:23:07;;;;;;;11.70;2.58;;;;;;;21.08;52.52;102370.75;5075175;28;20128;-56
2023/05/29 11:25:37;;;;;;;8.80;2.22;;;;;;;21.19;53.11;102370.66;5074824;28;20051;-56
2023/05/29 11:28:08;;;;;;;14.63;2.88;;;;;;;21.40;54.73;102375.09;5074862;28;20048;-56